createdAt,value
2018-02-13T00:03:42.046Z,-0.20
2018-02-13T00:08:36.328Z,-0.20
2018-02-13T00:13:31.385Z,-0.20
2018-02-13T00:18:25.663Z,-0.20
2018-02-13T00:23:20.406Z,-0.20
2018-02-13T00:28:15.020Z,-0.20
2018-02-13T00:33:09.473Z,-0.20
2018-02-13T00:38:04.628Z,-0.20
2018-02-13T00:42:58.920Z,-0.20
2018-02-13T00:47:53.253Z,-0.20
2018-02-13T00:52:47.523Z,-0.30
2018-02-13T00:57:41.866Z,-0.30
2018-02-13T01:02:36.150Z,-0.40
2018-02-13T01:07:30.788Z,-0.40
2018-02-13T01:12:25.858Z,-0.40
2018-02-13T01:17:20.215Z,-0.40
2018-02-13T01:22:15.451Z,-0.40
2018-02-13T01:27:10.490Z,-0.40
2018-02-13T01:32:04.778Z,-0.50
2018-02-13T01:36:59.125Z,-0.40
2018-02-13T01:41:53.411Z,-0.40
2018-02-13T01:46:47.695Z,-0.50
2018-02-13T01:51:42.164Z,-0.50
2018-02-13T01:56:37.197Z,-0.40
2018-02-13T02:01:32.237Z,-0.40
2018-02-13T02:06:26.570Z,-0.40
2018-02-13T02:11:20.848Z,-0.50
2018-02-13T02:16:15.360Z,-0.50
2018-02-13T02:21:09.640Z,-0.50
2018-02-13T02:26:04.745Z,-0.50
2018-02-13T02:30:59.966Z,-0.50
2018-02-13T02:35:55.005Z,-0.50
2018-02-13T02:40:49.272Z,-0.60
2018-02-13T02:45:43.540Z,-0.50
2018-02-13T02:50:37.820Z,-0.60
2018-02-13T02:55:32.224Z,-0.60
2018-02-13T03:00:26.505Z,-0.70
2018-02-13T03:05:21.009Z,-0.80
2018-02-13T03:10:15.296Z,-0.80
2018-02-13T03:15:10.346Z,-0.80
2018-02-13T03:20:04.630Z,-0.90
2018-02-13T03:24:58.904Z,-0.90
2018-02-13T03:29:53.968Z,-0.80
2018-02-13T03:34:48.246Z,-0.90
2018-02-13T03:39:43.518Z,-0.70
2018-02-13T03:44:37.791Z,-0.70
2018-02-13T03:49:32.060Z,-0.70
2018-02-13T03:54:27.100Z,-0.70
2018-02-13T03:59:21.382Z,-0.70
2018-02-13T04:04:16.418Z,-0.80
2018-02-13T04:09:10.736Z,-0.80
2018-02-13T04:14:05.080Z,-0.80
2018-02-13T04:18:59.924Z,-0.80
2018-02-13T04:23:57.806Z,-0.80
2018-02-13T04:28:52.862Z,-0.80
2018-02-13T04:33:47.167Z,-0.80
2018-02-13T04:38:41.533Z,-0.80
2018-02-13T04:43:35.958Z,-0.80
2018-02-13T04:48:30.216Z,-0.80
2018-02-13T04:53:25.277Z,-0.80
2018-02-13T04:58:19.566Z,-0.90
2018-02-13T05:03:13.931Z,-0.90
2018-02-13T05:08:08.956Z,-0.90
2018-02-13T05:13:04.256Z,-0.80
2018-02-13T05:17:58.560Z,-0.80
2018-02-13T05:22:53.016Z,-0.80
2018-02-13T05:27:47.286Z,-0.90
2018-02-13T05:32:42.349Z,-0.90
2018-02-13T05:37:36.643Z,-0.90
2018-02-13T05:42:30.940Z,-0.90
2018-02-13T05:47:25.204Z,-1.00
2018-02-13T05:52:20.242Z,-1.00
2018-02-13T05:57:14.518Z,-1.00
2018-02-13T06:02:09.592Z,-1.00
2018-02-13T06:07:04.143Z,-1.00
2018-02-13T06:11:59.220Z,-1.00
2018-02-13T06:16:53.499Z,-1.00
2018-02-13T06:21:47.783Z,-1.10
2018-02-13T06:26:43.153Z,-1.10
2018-02-13T06:31:37.443Z,-1.10
2018-02-13T06:36:31.720Z,-1.10
2018-02-13T06:41:25.996Z,-1.10
2018-02-13T06:46:21.043Z,-1.00
2018-02-13T06:51:15.555Z,-1.00
2018-02-13T06:56:09.843Z,-1.10
2018-02-13T07:01:04.122Z,-1.10
2018-02-13T07:05:59.208Z,-1.00
2018-02-13T07:10:53.306Z,-1.00
2018-02-13T07:15:47.800Z,-0.90
2018-02-13T07:20:42.144Z,-0.90
2018-02-13T07:25:37.218Z,-0.60
2018-02-13T07:30:31.498Z,-0.60
2018-02-13T07:35:25.852Z,-0.50
2018-02-13T07:40:20.904Z,-0.10
2018-02-13T07:45:15.189Z,-0.10
2018-02-13T07:50:09.472Z,0.10
2018-02-13T07:55:04.357Z,5.80
2018-02-13T07:59:58.642Z,5.80
2018-02-13T08:04:53.060Z,9.30
2018-02-13T08:09:47.499Z,12.00
2018-02-13T08:14:42.970Z,15.50
2018-02-13T08:19:37.774Z,15.40
2018-02-13T08:24:32.364Z,16.90
2018-02-13T08:29:26.641Z,17.80
2018-02-13T08:34:21.526Z,19.10
2018-02-13T08:39:15.817Z,19.10
2018-02-13T08:44:10.106Z,20.00
2018-02-13T08:49:04.512Z,21.60
2018-02-13T08:53:58.900Z,22.80
2018-02-13T08:58:53.377Z,21.80
2018-02-13T09:03:48.685Z,23.80
2018-02-13T09:08:43.972Z,24.40
2018-02-13T09:13:38.442Z,24.40
2018-02-13T09:18:32.863Z,25.10
2018-02-13T09:23:27.180Z,24.90
2018-02-13T09:28:21.504Z,26.10
2018-02-13T09:33:15.776Z,25.70
2018-02-13T09:38:10.274Z,27.70
2018-02-13T09:43:05.073Z,27.80
2018-02-13T09:48:00.209Z,27.50
2018-02-13T09:52:54.467Z,27.50
2018-02-13T09:57:49.667Z,25.70
2018-02-13T10:02:44.273Z,25.70
2018-02-13T10:07:38.807Z,22.60
2018-02-13T10:12:33.950Z,13.30
2018-02-13T10:17:28.050Z,13.10
2018-02-13T10:22:22.158Z,10.60
2018-02-13T10:27:16.496Z,8.90
2018-02-13T10:32:11.143Z,7.90
2018-02-13T10:37:05.700Z,6.90
2018-02-13T10:41:59.968Z,6.40
2018-02-13T10:46:54.285Z,6.00
2018-02-13T10:51:48.739Z,5.80
2018-02-13T10:56:43.787Z,5.50
2018-02-13T11:01:37.891Z,5.40
2018-02-13T11:06:32.148Z,5.50
2018-02-13T11:11:27.207Z,5.50
2018-02-13T11:16:21.478Z,5.40
2018-02-13T11:21:16.598Z,5.50
2018-02-13T11:26:11.905Z,5.40
2018-02-13T11:31:07.201Z,5.40
2018-02-13T11:36:01.522Z,5.40
2018-02-13T11:40:56.010Z,5.40
2018-02-13T11:45:50.290Z,5.40
2018-02-13T11:50:44.737Z,5.50
2018-02-13T11:55:39.809Z,5.80
2018-02-13T12:00:34.303Z,5.80
2018-02-13T12:05:31.620Z,5.80
2018-02-13T12:10:26.913Z,6.00
2018-02-13T12:15:21.208Z,6.00
2018-02-13T12:20:15.481Z,6.10
2018-02-13T12:25:10.520Z,6.50
2018-02-13T12:30:04.738Z,6.40
2018-02-13T12:34:59.268Z,6.70
2018-02-13T12:39:53.541Z,6.90
2018-02-13T12:44:47.816Z,7.10
2018-02-13T12:49:42.964Z,7.30
2018-02-13T12:54:37.244Z,7.20
2018-02-13T12:59:31.699Z,7.40
2018-02-13T13:04:25.980Z,7.30
2018-02-13T13:09:20.253Z,7.10
2018-02-13T13:14:14.561Z,6.70
2018-02-13T13:19:09.007Z,6.60
2018-02-13T13:24:04.297Z,6.50
2018-02-13T13:28:58.638Z,6.50
2018-02-13T13:33:53.128Z,6.60
2018-02-13T13:38:47.230Z,6.40
2018-02-13T13:43:41.872Z,6.50
2018-02-13T13:48:36.359Z,6.40
2018-02-13T13:53:31.811Z,6.40
2018-02-13T13:58:26.878Z,6.40
2018-02-13T14:03:21.389Z,6.40
2018-02-13T14:08:16.875Z,6.40
2018-02-13T14:13:11.572Z,6.50
2018-02-13T14:18:06.709Z,6.60
2018-02-13T14:23:01.215Z,6.50
2018-02-13T14:27:55.637Z,6.60
2018-02-13T14:32:50.075Z,6.50
2018-02-13T14:37:44.371Z,6.50
2018-02-13T14:42:38.902Z,6.50
2018-02-13T14:47:33.786Z,6.30
2018-02-13T14:52:28.087Z,6.30
2018-02-13T14:57:22.382Z,6.10
2018-02-13T15:02:16.664Z,6.00
2018-02-13T15:07:10.957Z,5.70
2018-02-13T15:12:05.244Z,5.50
2018-02-13T15:17:14.256Z,5.30
2018-02-13T15:22:09.324Z,5.00
2018-02-13T15:27:03.725Z,4.80
2018-02-13T15:31:57.839Z,4.80
2018-02-13T15:36:52.132Z,4.70
2018-02-13T15:41:46.402Z,4.60
2018-02-13T15:46:40.500Z,4.60
2018-02-13T15:51:34.801Z,4.50
2018-02-13T15:56:29.408Z,4.50
2018-02-13T16:01:23.684Z,4.40
2018-02-13T16:06:18.749Z,4.20
2018-02-13T16:11:13.031Z,4.20
2018-02-13T16:16:07.311Z,4.20
2018-02-13T16:21:02.458Z,4.00
2018-02-13T16:25:56.842Z,4.00
2018-02-13T16:30:51.538Z,3.90
2018-02-13T16:35:46.650Z,3.80
2018-02-13T16:40:41.890Z,3.70
2018-02-13T16:45:36.993Z,3.60
2018-02-13T16:50:31.312Z,3.60
2018-02-13T16:55:26.609Z,3.50
2018-02-13T17:00:20.911Z,3.50
2018-02-13T17:05:16.792Z,3.30
2018-02-13T17:10:11.987Z,3.20
2018-02-13T17:15:07.094Z,3.10
2018-02-13T17:20:02.274Z,3.10
2018-02-13T17:24:56.656Z,3.00
2018-02-13T17:29:50.990Z,3.00
2018-02-13T17:34:45.253Z,2.90
2018-02-13T17:39:39.649Z,2.80
2018-02-13T17:44:33.732Z,2.80
2018-02-13T17:49:28.814Z,2.70
2018-02-13T17:54:23.235Z,2.70
2018-02-13T17:59:18.585Z,2.60
2018-02-13T18:04:13.626Z,2.50
2018-02-13T18:09:07.896Z,2.50
2018-02-13T18:14:02.965Z,2.40
2018-02-13T18:18:57.499Z,2.40
2018-02-13T18:23:53.517Z,2.30
2018-02-13T18:28:47.811Z,2.30
2018-02-13T18:33:42.234Z,2.30
2018-02-13T18:38:36.767Z,2.20
2018-02-13T18:43:31.854Z,2.10
2018-02-13T18:48:26.249Z,2.10
2018-02-13T18:53:21.563Z,2.10
2018-02-13T18:58:16.038Z,2.00
2018-02-13T19:03:11.008Z,1.90
2018-02-13T19:08:05.530Z,1.90
2018-02-13T19:13:01.015Z,1.80
2018-02-13T19:17:55.620Z,1.70
2018-02-13T19:22:50.401Z,1.70
2018-02-13T19:27:45.972Z,1.60
2018-02-13T19:32:41.900Z,1.60
2018-02-13T19:37:37.765Z,1.50
2018-02-13T19:42:35.238Z,1.50
2018-02-13T19:47:32.236Z,1.40
2018-02-13T19:52:29.093Z,1.60
2018-02-13T19:57:24.504Z,1.50
2018-02-13T20:02:20.182Z,1.50
2018-02-13T20:07:15.061Z,1.40
2018-02-13T20:12:10.717Z,1.40
2018-02-13T20:17:05.348Z,1.40
2018-02-13T20:22:00.782Z,1.30
2018-02-13T20:26:55.799Z,1.20
2018-02-13T20:31:50.622Z,1.20
2018-02-13T20:36:45.316Z,1.10
2018-02-13T20:41:39.735Z,1.10
2018-02-13T20:46:34.318Z,1.10
2018-02-13T20:51:28.781Z,1.00
2018-02-13T20:56:24.555Z,0.90
2018-02-13T21:01:19.342Z,0.90
2018-02-13T21:06:14.666Z,0.90
2018-02-13T21:11:09.095Z,0.90
2018-02-13T21:16:03.599Z,0.90
2018-02-13T21:20:58.094Z,0.70
2018-02-13T21:25:53.214Z,0.90
2018-02-13T21:30:48.324Z,0.70
2018-02-13T21:35:43.385Z,0.70
2018-02-13T21:40:38.401Z,0.70
2018-02-13T21:45:32.980Z,0.60
2018-02-13T21:50:27.902Z,0.70
2018-02-13T21:55:23.166Z,0.60
2018-02-13T22:00:17.834Z,0.50
2018-02-13T22:05:12.483Z,0.60
2018-02-13T22:10:06.962Z,0.50
2018-02-13T22:15:01.224Z,0.60
2018-02-13T22:19:56.466Z,0.60
2018-02-13T22:24:51.516Z,0.60
2018-02-13T22:29:45.869Z,0.60
2018-02-13T22:34:41.040Z,0.50
2018-02-13T22:39:35.558Z,0.50
2018-02-13T22:44:29.638Z,0.40
2018-02-13T22:49:23.914Z,0.30
2018-02-13T22:54:18.375Z,0.20
2018-02-13T22:59:12.759Z,0.20
2018-02-13T23:04:07.148Z,0.20
2018-02-13T23:09:01.718Z,0.30
2018-02-13T23:13:57.022Z,0.30
2018-02-13T23:18:52.057Z,0.10
2018-02-13T23:23:47.299Z,0.10
2018-02-13T23:28:41.610Z,0.10
2018-02-13T23:33:36.329Z,0.10
2018-02-13T23:38:30.863Z,0.10
2018-02-13T23:43:25.236Z,0.00
2018-02-13T23:48:19.513Z,0.00
2018-02-13T23:53:13.800Z,-0.10
2018-02-13T23:58:08.838Z,-0.20
